Time;durP1;ratioP1;P1;durP2;ratioP2;P2;SDS_P1;SDS_P2;PMS_P1;PMS_P2;Temp;Humidity;BMP_temperature;BMP_pressure;BME280_temperature;BME280_humidity;BME280_pressure;Samples;Min_cycle;Max_cycle;Signal;HPM_P1;HPM_P2
2021/11/21 00:01:18;;;;;;;19.05;11.55;;;;;;;;;;5110149;28;20031;-67
2021/11/21 00:03:44;;;;;;;20.95;12.00;;;;;;;;;;5109175;28;20020;-70
2021/11/21 00:06:10;;;;;;;21.98;12.30;;;;;;;;;;5108415;28;20398;-70
2021/11/21 00:08:36;;;;;;;22.70;12.82;;;;;;;;;;5108187;28;20030;-70
2021/11/21 00:11:02;;;;;;;21.40;13.05;;;;;;;;;;5107260;28;20036;-70
2021/11/21 00:13:28;;;;;;;25.95;13.70;;;;;;;;;;5108371;28;20433;-69
2021/11/21 00:15:54;;;;;;;19.35;11.85;;;;;;;;;;5109930;28;20030;-70
2021/11/21 00:18:20;;;;;;;22.35;14.15;;;;;;;;;;5108268;28;20036;-70
2021/11/21 00:20:46;;;;;;;26.63;14.63;;;;;;;;;;5107649;28;20039;-70
2021/11/21 00:23:12;;;;;;;16.65;11.18;;;;;;;;;;5107542;28;20034;-70
2021/11/21 00:25:38;;;;;;;24.73;13.27;;;;;;;;;;5109618;28;20055;-69
2021/11/21 00:28:05;;;;;;;23.48;12.85;;;;;;;;;;5111965;28;20028;-69
2021/11/21 00:30:31;;;;;;;21.15;12.30;;;;;;;;;;5111403;27;20035;-69
2021/11/21 00:32:57;;;;;;;23.63;13.32;;;;;;;;;;5111157;28;20039;-69
2021/11/21 00:35:23;;;;;;;20.02;13.27;;;;;;;;;;5111322;28;20399;-69
2021/11/21 00:37:49;;;;;;;20.75;12.85;;;;;;;;;;5111050;28;20036;-69
2021/11/21 00:40:15;;;;;;;21.45;11.57;;;;;;;;;;5114189;28;20032;-69
2021/11/21 00:42:41;;;;;;;19.60;11.57;;;;;;;;;;5113091;28;20035;-69
2021/11/21 00:45:08;;;;;;;20.52;11.70;;;;;;;;;;5111058;28;20026;-68
2021/11/21 00:47:34;;;;;;;22.23;11.63;;;;;;;;;;5111237;28;20031;-68
2021/11/21 00:50:02;;;;;;;16.80;9.73;;;;;;;;;;5111178;28;20088;-68
2021/11/21 00:52:30;;;;;;;17.85;9.63;;;;;;;;;;5112449;28;20020;-68
2021/11/21 00:55:16;;;;;;;21.13;11.90;;;;;;;;;;5113033;28;20027;-68
2021/11/21 00:57:43;;;;;;;253.88;18.05;;;;;;;;;;5113573;28;20262;-70
2021/11/21 01:00:10;;;;;;;23.52;11.38;;;;;;;;;;5110821;28;20027;-69
2021/11/21 01:02:38;;;;;;;27.20;14.15;;;;;;;;;;5110319;28;20487;-69
2021/11/21 01:05:06;;;;;;;19.50;11.30;;;;;;;;;;5112288;28;20471;-70
2021/11/21 01:07:33;;;;;;;17.35;8.00;;;;;;;;;;5111975;27;20023;-69
2021/11/21 01:09:59;;;;;;;23.42;12.98;;;;;;;;;;5113571;28;20015;-69
2021/11/21 01:12:25;;;;;;;19.45;9.90;;;;;;;;;;5110156;28;20617;-70
2021/11/21 01:14:51;;;;;;;18.27;9.95;;;;;;;;;;5110379;28;20115;-69
2021/11/21 01:17:17;;;;;;;28.13;12.43;;;;;;;;;;5111735;28;20493;-69
2021/11/21 01:19:44;;;;;;;17.90;12.15;;;;;;;;;;5110657;28;20027;-68
2021/11/21 01:22:10;;;;;;;27.38;12.38;;;;;;;;;;5113729;28;20027;-68
2021/11/21 01:24:36;;;;;;;21.08;10.30;;;;;;;;;;5112308;28;20020;-70
2021/11/21 01:27:02;;;;;;;21.23;11.13;;;;;;;;;;5110704;28;20091;-68
2021/11/21 01:29:28;;;;;;;25.98;12.40;;;;;;;;;;5109818;28;20440;-68
2021/11/21 01:31:54;;;;;;;23.42;13.07;;;;;;;;;;5110297;28;20052;-68
2021/11/21 01:34:20;;;;;;;24.30;13.55;;;;;;;;;;5112105;28;20154;-68
2021/11/21 01:36:46;;;;;;;21.75;12.32;;;;;;;;;;5109964;28;20394;-68
2021/11/21 01:39:13;;;;;;;22.50;12.20;;;;;;;;;;5110213;28;20031;-70
2021/11/21 01:41:39;;;;;;;22.70;12.10;;;;;;;;;;5109407;28;20082;-70
2021/11/21 01:44:08;;;;;;;20.80;10.80;;;;;;;;;;5109458;28;20028;-69
2021/11/21 01:46:35;;;;;;;17.75;11.25;;;;;;;;;;5110621;28;20055;-69
2021/11/21 01:49:01;;;;;;;19.08;10.57;;;;;;;;;;5112704;28;20073;-70
2021/11/21 01:51:27;;;;;;;15.20;9.48;;;;;;;;;;5110135;28;20471;-69
2021/11/21 01:53:53;;;;;;;14.38;9.48;;;;;;;;;;5109034;28;20080;-69
2021/11/21 01:56:19;;;;;;;17.10;8.75;;;;;;;;;;5109560;28;20040;-69
2021/11/21 01:58:45;;;;;;;22.88;12.88;;;;;;;;;;5109944;28;20051;-68
2021/11/21 02:01:11;;;;;;;34.33;14.27;;;;;;;;;;5112697;28;20467;-68
2021/11/21 02:03:37;;;;;;;24.77;12.32;;;;;;;;;;5109720;28;20024;-70
2021/11/21 02:06:03;;;;;;;18.00;11.02;;;;;;;;;;5108288;28;20441;-70
2021/11/21 02:08:29;;;;;;;25.98;13.48;;;;;;;;;;5109327;28;20066;-70
2021/11/21 02:10:59;;;;;;;25.27;12.35;;;;;;;;;;5109519;28;20077;-70
2021/11/21 02:13:25;;;;;;;116.10;14.25;;;;;;;;;;5111392;28;20023;-70
2021/11/21 02:15:51;;;;;;;37.00;13.05;;;;;;;;;;5110850;28;20024;-67
2021/11/21 02:18:17;;;;;;;24.55;11.20;;;;;;;;;;5109618;28;20543;-70
2021/11/21 02:20:44;;;;;;;40.55;11.80;;;;;;;;;;5108602;28;20113;-70
2021/11/21 02:23:10;;;;;;;21.10;11.10;;;;;;;;;;5108870;28;20035;-69
2021/11/21 02:25:37;;;;;;;25.42;10.80;;;;;;;;;;5109304;28;20039;-69
2021/11/21 02:28:03;;;;;;;22.27;10.82;;;;;;;;;;5112462;28;20027;-69
2021/11/21 02:30:30;;;;;;;16.38;9.68;;;;;;;;;;5109165;28;20035;-69
2021/11/21 02:32:56;;;;;;;16.30;8.13;;;;;;;;;;5109173;28;20065;-69
2021/11/21 02:35:23;;;;;;;14.48;8.73;;;;;;;;;;5110100;28;20077;-69
2021/11/21 02:37:49;;;;;;;17.33;8.70;;;;;;;;;;5108943;28;20584;-69
2021/11/21 02:40:16;;;;;;;16.17;8.73;;;;;;;;;;5111481;28;20114;-69
2021/11/21 02:42:42;;;;;;;17.25;8.23;;;;;;;;;;5111308;28;20450;-70
2021/11/21 02:45:10;;;;;;;14.15;8.00;;;;;;;;;;5108952;28;20027;-70
2021/11/21 02:47:36;;;;;;;14.13;8.38;;;;;;;;;;5108430;28;20084;-69
2021/11/21 02:50:06;;;;;;;15.70;8.23;;;;;;;;;;5108891;28;20024;-70
2021/11/21 02:52:33;;;;;;;44.78;9.70;;;;;;;;;;5109789;28;20526;-70
2021/11/21 02:54:59;;;;;;;30.95;8.60;;;;;;;;;;5111330;28;20032;-70
2021/11/21 02:57:26;;;;;;;71.20;9.00;;;;;;;;;;5108025;28;20089;-70
2021/11/21 02:59:52;;;;;;;19.92;8.32;;;;;;;;;;5108968;28;20038;-69
2021/11/21 03:02:19;;;;;;;14.27;8.15;;;;;;;;;;5108601;28;20031;-70
2021/11/21 03:04:46;;;;;;;16.48;8.57;;;;;;;;;;5108773;28;20490;-70
2021/11/21 03:07:12;;;;;;;20.90;9.82;;;;;;;;;;5111548;28;20030;-67
2021/11/21 03:09:39;;;;;;;18.75;10.65;;;;;;;;;;5108704;28;20016;-68
2021/11/21 03:12:05;;;;;;;20.75;10.02;;;;;;;;;;5108481;28;20020;-70
2021/11/21 03:14:31;;;;;;;15.52;8.38;;;;;;;;;;5109682;28;20035;-70
2021/11/21 03:16:57;;;;;;;16.05;8.80;;;;;;;;;;5108495;28;20036;-70
2021/11/21 03:19:23;;;;;;;14.30;8.65;;;;;;;;;;5110741;28;20066;-70
2021/11/21 03:21:49;;;;;;;14.88;8.02;;;;;;;;;;5109300;28;20043;-70
2021/11/21 03:24:15;;;;;;;15.32;8.43;;;;;;;;;;5108390;28;20036;-70
2021/11/21 03:26:41;;;;;;;12.75;7.55;;;;;;;;;;5109624;28;20403;-70
2021/11/21 03:29:07;;;;;;;15.10;8.13;;;;;;;;;;5108577;28;20066;-70
2021/11/21 03:31:34;;;;;;;18.60;9.38;;;;;;;;;;5109144;28;20106;-70
2021/11/21 03:34:01;;;;;;;16.23;8.95;;;;;;;;;;5111062;28;20028;-70
2021/11/21 03:36:27;;;;;;;16.10;8.77;;;;;;;;;;5107867;28;20023;-70
2021/11/21 03:38:53;;;;;;;13.18;8.07;;;;;;;;;;5108295;28;20035;-70
2021/11/21 03:41:19;;;;;;;33.67;10.05;;;;;;;;;;5109680;28;20040;-68
2021/11/21 03:43:45;;;;;;;74.10;8.48;;;;;;;;;;5108094;28;20032;-68
2021/11/21 03:46:11;;;;;;;19.33;8.82;;;;;;;;;;5110897;28;20089;-68
2021/11/21 03:48:37;;;;;;;17.85;8.68;;;;;;;;;;5108475;28;20046;-68
2021/11/21 03:51:03;;;;;;;15.38;8.15;;;;;;;;;;5108178;28;20090;-68
2021/11/21 03:53:29;;;;;;;14.90;7.47;;;;;;;;;;5107702;28;20123;-70
2021/11/21 03:55:55;;;;;;;17.90;8.93;;;;;;;;;;5108094;28;20028;-69
2021/11/21 03:58:21;;;;;;;13.00;6.95;;;;;;;;;;5110154;28;20038;-69
2021/11/21 04:00:49;;;;;;;20.85;7.38;;;;;;;;;;5109372;28;20471;-70
2021/11/21 04:03:16;;;;;;;12.98;8.05;;;;;;;;;;5108710;28;20015;-69
2021/11/21 04:05:42;;;;;;;14.55;7.28;;;;;;;;;;5111506;28;20085;-69
2021/11/21 04:08:08;;;;;;;14.05;6.72;;;;;;;;;;5111921;28;20020;-69
2021/11/21 04:10:35;;;;;;;13.10;6.22;;;;;;;;;;5112532;28;20396;-69
2021/11/21 04:13:01;;;;;;;11.52;6.07;;;;;;;;;;5114853;28;20033;-69
2021/11/21 04:15:27;;;;;;;11.02;6.18;;;;;;;;;;5111465;28;20023;-69
2021/11/21 04:17:54;;;;;;;15.20;7.60;;;;;;;;;;5111817;28;20020;-69
2021/11/21 04:20:20;;;;;;;11.88;6.40;;;;;;;;;;5111496;28;20063;-69
2021/11/21 04:22:46;;;;;;;14.63;7.03;;;;;;;;;;5111324;28;20028;-69
2021/11/21 04:25:13;;;;;;;14.88;7.95;;;;;;;;;;5115040;28;20034;-69
2021/11/21 04:27:39;;;;;;;32.10;6.85;;;;;;;;;;5112181;28;20089;-69
2021/11/21 04:30:08;;;;;;;23.23;7.78;;;;;;;;;;5111528;28;20024;-69
2021/11/21 04:32:37;;;;;;;13.07;7.20;;;;;;;;;;5112244;28;20498;-69
2021/11/21 04:35:03;;;;;;;18.60;7.45;;;;;;;;;;5111601;28;20020;-69
2021/11/21 04:37:29;;;;;;;55.25;8.10;;;;;;;;;;5112905;28;20028;-69
2021/11/21 04:39:55;;;;;;;17.92;7.35;;;;;;;;;;5113516;28;20122;-69
2021/11/21 04:42:21;;;;;;;12.73;6.70;;;;;;;;;;5110788;28;20514;-69
2021/11/21 04:44:47;;;;;;;15.98;6.97;;;;;;;;;;5110675;28;20024;-69
2021/11/21 04:47:13;;;;;;;13.80;7.10;;;;;;;;;;5111487;28;20038;-69
2021/11/21 04:49:39;;;;;;;11.63;6.15;;;;;;;;;;5111527;28;20027;-68
2021/11/21 04:52:05;;;;;;;11.73;6.47;;;;;;;;;;5114521;28;20451;-68
2021/11/21 04:54:31;;;;;;;13.20;6.53;;;;;;;;;;5111026;28;20028;-68
2021/11/21 04:56:57;;;;;;;12.52;6.30;;;;;;;;;;5111195;28;20131;-68
2021/11/21 04:59:23;;;;;;;12.63;6.13;;;;;;;;;;5111935;28;20032;-68
2021/11/21 05:01:49;;;;;;;12.93;6.78;;;;;;;;;;5111269;27;20088;-68
2021/11/21 05:04:15;;;;;;;12.45;5.45;;;;;;;;;;5113450;28;20028;-70
2021/11/21 05:06:41;;;;;;;8.77;4.68;;;;;;;;;;5111093;28;20027;-69
2021/11/21 05:09:07;;;;;;;13.85;5.85;;;;;;;;;;5109213;28;20023;-68
2021/11/21 05:11:34;;;;;;;8.80;4.82;;;;;;;;;;5110605;28;20037;-68
2021/11/21 05:14:00;;;;;;;10.05;4.28;;;;;;;;;;5110877;28;20020;-68
2021/11/21 05:16:27;;;;;;;8.90;4.63;;;;;;;;;;5112433;28;20510;-68
2021/11/21 05:18:52;;;;;;;9.65;5.07;;;;;;;;;;5111889;28;20099;-68
2021/11/21 05:21:19;;;;;;;8.13;4.38;;;;;;;;;;5110279;28;20122;-68
2021/11/21 05:23:45;;;;;;;11.70;5.38;;;;;;;;;;5110331;28;20497;-68
2021/11/21 05:26:11;;;;;;;9.63;5.10;;;;;;;;;;5110381;28;20024;-68
2021/11/21 05:28:37;;;;;;;8.43;4.63;;;;;;;;;;5109361;28;20491;-69
2021/11/21 05:31:03;;;;;;;10.10;5.70;;;;;;;;;;5114028;28;20063;-68
2021/11/21 05:33:29;;;;;;;11.80;6.22;;;;;;;;;;5109875;28;20058;-68
2021/11/21 05:35:55;;;;;;;11.25;6.80;;;;;;;;;;5110092;28;20034;-69
2021/11/21 05:38:21;;;;;;;11.98;6.65;;;;;;;;;;5111088;28;20028;-68
2021/11/21 05:40:49;;;;;;;10.57;6.63;;;;;;;;;;5105088;28;20059;-68
2021/11/21 05:43:15;;;;;;;9.82;5.65;;;;;;;;;;5110509;28;20028;-68
2021/11/21 05:45:41;;;;;;;9.73;5.97;;;;;;;;;;5104957;28;20027;-68
2021/11/21 05:48:07;;;;;;;11.70;6.55;;;;;;;;;;5107061;28;20038;-68
2021/11/21 05:50:33;;;;;;;12.40;5.75;;;;;;;;;;5107263;28;20039;-68
2021/11/21 05:52:59;;;;;;;11.80;6.18;;;;;;;;;;5104952;28;20038;-68
2021/11/21 05:55:25;;;;;;;8.65;4.88;;;;;;;;;;5103887;27;20047;-68
2021/11/21 05:57:51;;;;;;;10.43;6.28;;;;;;;;;;5106204;28;20020;-67
2021/11/21 06:00:19;;;;;;;11.52;5.43;;;;;;;;;;5105105;27;20039;-68
2021/11/21 06:02:44;;;;;;;10.73;5.60;;;;;;;;;;5103610;28;20118;-66
2021/11/21 06:05:10;;;;;;;14.77;5.68;;;;;;;;;;5104998;27;20098;-68
2021/11/21 06:07:37;;;;;;;11.85;5.35;;;;;;;;;;5103207;28;20566;-67
2021/11/21 06:10:04;;;;;;;13.10;5.68;;;;;;;;;;5103384;28;20558;-67
2021/11/21 06:12:30;;;;;;;10.93;5.65;;;;;;;;;;5108374;28;20023;-67
2021/11/21 06:14:56;;;;;;;12.55;5.90;;;;;;;;;;5105517;28;20032;-67
2021/11/21 06:17:22;;;;;;;32.10;6.90;;;;;;;;;;5106044;28;20479;-67
2021/11/21 06:19:48;;;;;;;10.80;5.03;;;;;;;;;;5103419;28;20075;-68
2021/11/21 06:22:17;;;;;;;10.05;5.32;;;;;;;;;;5089688;28;20040;-69
2021/11/21 06:24:43;;;;;;;7.28;3.92;;;;;;;;;;5103268;28;20477;-69
2021/11/21 06:27:09;;;;;;;6.25;3.45;;;;;;;;;;5102421;28;20031;-68
2021/11/21 06:29:35;;;;;;;10.52;5.20;;;;;;;;;;5107589;28;20016;-68
2021/11/21 06:32:01;;;;;;;8.52;4.93;;;;;;;;;;5105908;28;20117;-67
2021/11/21 06:34:27;;;;;;;8.90;4.50;;;;;;;;;;5109182;28;20059;-67
2021/11/21 06:36:53;;;;;;;34.58;5.78;;;;;;;;;;5109283;28;20192;-69
2021/11/21 06:39:20;;;;;;;10.98;5.30;;;;;;;;;;5104120;28;20042;-65
2021/11/21 06:41:46;;;;;;;12.50;4.90;;;;;;;;;;5108190;28;20510;-67
2021/11/21 06:44:12;;;;;;;9.38;5.03;;;;;;;;;;5108964;28;20024;-66
2021/11/21 06:46:38;;;;;;;10.93;5.38;;;;;;;;;;5108329;28;20036;-65
2021/11/21 06:49:05;;;;;;;13.63;4.53;;;;;;;;;;5098932;28;20015;-64
2021/11/21 06:51:31;;;;;;;11.63;5.03;;;;;;;;;;5096724;28;20062;-66
2021/11/21 06:53:57;;;;;;;11.00;4.65;;;;;;;;;;5104876;28;20038;-65
2021/11/21 06:56:23;;;;;;;14.70;5.35;;;;;;;;;;5109516;28;20494;-65
2021/11/21 06:58:49;;;;;;;13.50;5.28;;;;;;;;;;5102873;28;20471;-65
2021/11/21 07:01:15;;;;;;;10.88;6.85;;;;;;;;;;5107593;28;20032;-67
2021/11/21 07:03:43;;;;;;;11.75;6.93;;;;;;;;;;5101272;28;20032;-66
2021/11/21 07:06:27;;;;;;;7.75;3.88;;;;;;;;;;5100355;28;20031;-66
2021/11/21 07:08:53;;;;;;;8.13;3.90;;;;;;;;;;5102880;28;20055;-66
2021/11/21 07:11:21;;;;;;;7.43;3.90;;;;;;;;;;5106554;28;20035;-65
2021/11/21 07:13:47;;;;;;;8.65;4.60;;;;;;;;;;5108309;28;20047;-67
2021/11/21 07:16:13;;;;;;;12.07;4.72;;;;;;;;;;5110120;28;20024;-67
2021/11/21 07:18:39;;;;;;;7.03;4.15;;;;;;;;;;5107846;28;20027;-65
2021/11/21 07:21:05;;;;;;;9.63;3.70;;;;;;;;;;5104063;28;20097;-65
2021/11/21 07:23:31;;;;;;;7.88;4.47;;;;;;;;;;5106832;28;20479;-66
2021/11/21 07:25:57;;;;;;;7.32;3.92;;;;;;;;;;5107923;28;20036;-65
2021/11/21 07:28:23;;;;;;;7.35;4.25;;;;;;;;;;5108487;28;20027;-67
2021/11/21 07:30:49;;;;;;;8.13;3.72;;;;;;;;;;5105701;28;20130;-65
2021/11/21 07:33:15;;;;;;;6.45;3.65;;;;;;;;;;5104139;28;20730;-67
2021/11/21 07:35:41;;;;;;;11.05;3.80;;;;;;;;;;5109000;28;20059;-68
2021/11/21 07:38:07;;;;;;;8.05;3.20;;;;;;;;;;5108808;28;20073;-68
2021/11/21 07:40:33;;;;;;;5.05;2.55;;;;;;;;;;5110559;28;20076;-68
2021/11/21 07:42:59;;;;;;;7.90;2.88;;;;;;;;;;5113743;28;20024;-68
2021/11/21 07:45:25;;;;;;;5.30;2.25;;;;;;;;;;5106940;28;20127;-68
2021/11/21 07:47:51;;;;;;;7.70;3.00;;;;;;;;;;5110804;28;20036;-68
2021/11/21 07:50:17;;;;;;;3.63;2.10;;;;;;;;;;5112216;28;20052;-68
2021/11/21 07:52:43;;;;;;;6.03;3.58;;;;;;;;;;5111675;28;20460;-68
2021/11/21 07:55:10;;;;;;;6.32;3.03;;;;;;;;;;5115879;28;20032;-68
2021/11/21 07:57:36;;;;;;;5.75;3.10;;;;;;;;;;5111729;28;20561;-69
2021/11/21 08:00:03;;;;;;;5.30;3.10;;;;;;;;;;5111667;28;20032;-69
2021/11/21 08:02:29;;;;;;;8.48;3.60;;;;;;;;;;5110995;28;20023;-69
2021/11/21 08:04:55;;;;;;;5.22;3.28;;;;;;;;;;5112207;28;20020;-69
2021/11/21 08:07:21;;;;;;;6.65;3.30;;;;;;;;;;5114711;28;20027;-69
2021/11/21 08:09:47;;;;;;;5.40;2.85;;;;;;;;;;5111424;28;20176;-69
2021/11/21 08:12:13;;;;;;;4.25;2.30;;;;;;;;;;5111479;28;20027;-69
2021/11/21 08:14:39;;;;;;;6.07;2.65;;;;;;;;;;5111175;28;20020;-69
2021/11/21 08:17:05;;;;;;;6.97;3.28;;;;;;;;;;5112083;28;20387;-70
2021/11/21 08:19:31;;;;;;;4.35;2.47;;;;;;;;;;5112758;28;20036;-69
2021/11/21 08:21:57;;;;;;;7.70;3.15;;;;;;;;;;5113500;28;20376;-69
2021/11/21 08:24:23;;;;;;;3.95;2.50;;;;;;;;;;5111886;28;20026;-69
2021/11/21 08:26:49;;;;;;;5.43;3.13;;;;;;;;;;5109852;28;20558;-69
2021/11/21 08:29:15;;;;;;;5.63;2.95;;;;;;;;;;5111508;28;20118;-69
2021/11/21 08:31:42;;;;;;;5.07;3.15;;;;;;;;;;5110774;28;20119;-69
2021/11/21 08:34:09;;;;;;;5.60;2.90;;;;;;;;;;5112271;28;20066;-69
2021/11/21 08:36:35;;;;;;;5.70;3.20;;;;;;;;;;5109972;28;20386;-68
2021/11/21 08:39:01;;;;;;;3.67;2.00;;;;;;;;;;5109886;28;20471;-68
2021/11/21 08:41:27;;;;;;;4.30;2.53;;;;;;;;;;5109944;28;20495;-68
2021/11/21 08:43:53;;;;;;;4.90;2.40;;;;;;;;;;5110111;28;20070;-68
2021/11/21 08:46:19;;;;;;;4.68;2.20;;;;;;;;;;5112275;28;20038;-68
2021/11/21 08:48:45;;;;;;;4.97;1.90;;;;;;;;;;5111174;28;20188;-69
2021/11/21 08:51:11;;;;;;;4.78;1.88;;;;;;;;;;5109969;28;20032;-69
2021/11/21 08:53:37;;;;;;;5.05;2.17;;;;;;;;;;5108813;28;20536;-70
2021/11/21 08:56:03;;;;;;;3.80;2.30;;;;;;;;;;5108849;28;20034;-70
2021/11/21 08:58:29;;;;;;;4.65;2.17;;;;;;;;;;5111609;28;20378;-70
2021/11/21 09:00:55;;;;;;;4.57;2.20;;;;;;;;;;5112132;28;20036;-70
2021/11/21 09:03:21;;;;;;;3.75;2.25;;;;;;;;;;5109800;28;20020;-70
2021/11/21 09:05:47;;;;;;;2.53;2.00;;;;;;;;;;5108806;28;20024;-69
2021/11/21 09:08:14;;;;;;;3.25;1.95;;;;;;;;;;5109984;28;20027;-70
2021/11/21 09:10:40;;;;;;;3.90;2.17;;;;;;;;;;5110130;28;20027;-70
2021/11/21 09:13:06;;;;;;;4.05;2.30;;;;;;;;;;5112776;28;20020;-69
2021/11/21 09:15:32;;;;;;;4.50;2.28;;;;;;;;;;5109513;28;20131;-69
2021/11/21 09:17:58;;;;;;;6.65;2.85;;;;;;;;;;5108988;28;20462;-70
2021/11/21 09:20:24;;;;;;;7.32;3.83;;;;;;;;;;5109005;28;20115;-70
2021/11/21 09:22:51;;;;;;;9.05;4.90;;;;;;;;;;5109303;28;20028;-69
2021/11/21 09:25:17;;;;;;;6.75;3.83;;;;;;;;;;5112214;28;20503;-69
2021/11/21 09:27:43;;;;;;;6.50;3.72;;;;;;;;;;5110570;28;20028;-69
2021/11/21 09:30:10;;;;;;;7.25;3.60;;;;;;;;;;5109333;28;20020;-69
2021/11/21 09:32:36;;;;;;;7.50;3.53;;;;;;;;;;5068503;28;1171903;-69
2021/11/21 09:35:03;;;;;;;5.93;3.15;;;;;;;;;;5110216;28;20020;-69
2021/11/21 09:37:29;;;;;;;6.07;2.95;;;;;;;;;;5112067;28;20020;-69
2021/11/21 09:39:55;;;;;;;5.65;2.67;;;;;;;;;;5112280;28;20479;-70
2021/11/21 09:42:21;;;;;;;3.83;2.35;;;;;;;;;;5108829;28;20081;-70
2021/11/21 09:44:47;;;;;;;6.03;2.95;;;;;;;;;;5109964;28;20024;-69
2021/11/21 09:47:13;;;;;;;4.82;2.30;;;;;;;;;;5108990;28;20030;-71
2021/11/21 09:49:40;;;;;;;3.30;1.80;;;;;;;;;;5110196;28;20024;-70
2021/11/21 09:52:06;;;;;;;8.15;3.90;;;;;;;;;;5112867;28;20031;-70
2021/11/21 09:54:32;;;;;;;2.55;1.33;;;;;;;;;;5108280;28;20494;-70
2021/11/21 09:56:58;;;;;;;2.78;1.27;;;;;;;;;;5108961;28;20102;-70
2021/11/21 09:59:43;;;;;;;3.85;1.15;;;;;;;;;;5109954;28;20375;-69
2021/11/21 10:02:19;;;;;;;3.20;1.38;;;;;;;;;;5108531;28;20475;-70
2021/11/21 10:04:45;;;;;;;2.20;1.20;;;;;;;;;;5093873;28;20015;-68
2021/11/21 10:07:25;;;;;;;3.60;1.40;;;;;;;;;;5112559;28;20050;-68
2021/11/21 10:09:52;;;;;;;5.60;1.20;;;;;;;;;;5110612;28;20390;-68
2021/11/21 10:12:18;;;;;;;3.60;1.13;;;;;;;;;;5108696;28;20028;-70
2021/11/21 10:14:53;;;;;;;1.30;0.90;;;;;;;;;;5109138;28;20024;-70
2021/11/21 10:17:20;;;;;;;3.20;1.30;;;;;;;;;;5108266;28;20415;-70
2021/11/21 10:20:06;;;;;;;2.47;1.35;;;;;;;;;;5109883;28;20034;-70
2021/11/21 10:22:50;;;;;;;2.80;1.38;;;;;;;;;;5110181;28;20032;-69
2021/11/21 10:25:32;;;;;;;4.88;2.00;;;;;;;;;;5088378;28;20060;-69
2021/11/21 10:28:05;;;;;;;4.13;2.20;;;;;;;;;;5111628;28;20496;-70
2021/11/21 10:30:31;;;;;;;4.03;1.00;;;;;;;;;;5109342;28;20107;-68
2021/11/21 10:33:02;;;;;;;1.83;0.82;;;;;;;;;;5108904;28;20019;-68
2021/11/21 10:35:28;;;;;;;1.10;0.70;;;;;;;;;;5107195;28;20154;-68
2021/11/21 10:37:56;;;;;;;1.67;0.90;;;;;;;;;;5109235;28;20016;-70
2021/11/21 10:40:23;;;;;;;1.98;0.88;;;;;;;;;;5109613;28;20034;-69
2021/11/21 10:42:51;;;;;;;1.60;0.90;;;;;;;;;;5110110;28;20031;-69
2021/11/21 10:45:22;;;;;;;2.05;0.70;;;;;;;;;;5108968;28;20466;-69
2021/11/21 10:47:50;;;;;;;1.33;0.82;;;;;;;;;;5108483;28;20452;-69
2021/11/21 10:50:33;;;;;;;3.60;1.07;;;;;;;;;;5108621;28;20024;-69
2021/11/21 10:53:00;;;;;;;2.22;1.13;;;;;;;;;;5099264;28;20482;-69
2021/11/21 10:55:26;;;;;;;1.85;0.90;;;;;;;;;;5110490;28;20471;-69
2021/11/21 10:57:52;;;;;;;3.63;0.93;;;;;;;;;;5110137;28;20441;-70
2021/11/21 11:00:18;;;;;;;0.88;0.68;;;;;;;;;;5108563;28;20031;-69
2021/11/21 11:02:45;;;;;;;1.20;0.65;;;;;;;;;;5108039;28;20035;-69
2021/11/21 11:05:12;;;;;;;1.80;0.82;;;;;;;;;;5108383;28;20461;-70
2021/11/21 11:07:47;;;;;;;2.08;1.55;;;;;;;;;;5108622;28;20019;-69
2021/11/21 11:10:16;;;;;;;1.15;0.75;;;;;;;;;;5108070;28;20110;-68
2021/11/21 11:12:43;;;;;;;1.05;0.70;;;;;;;;;;5109251;28;20022;-68
2021/11/21 11:15:09;;;;;;;0.90;0.60;;;;;;;;;;5107714;28;20047;-68
2021/11/21 11:17:35;;;;;;;1.58;0.85;;;;;;;;;;5108762;28;20030;-68
2021/11/21 11:20:03;;;;;;;1.65;0.82;;;;;;;;;;5107282;28;20398;-68
2021/11/21 11:22:29;;;;;;;1.38;1.05;;;;;;;;;;5109217;28;20395;-68
2021/11/21 11:24:56;;;;;;;0.63;0.60;;;;;;;;;;5110316;28;20054;-68
2021/11/21 11:27:31;;;;;;;1.05;0.68;;;;;;;;;;5108666;28;20031;-69
2021/11/21 11:29:57;;;;;;;2.47;0.50;;;;;;;;;;5108196;28;20031;-68
2021/11/21 11:32:29;;;;;;;1.60;0.70;;;;;;;;;;5107491;28;20503;-68
2021/11/21 11:34:56;;;;;;;0.65;0.50;;;;;;;;;;5108773;28;20049;-68
2021/11/21 11:37:42;;;;;;;0.57;0.50;;;;;;;;;;5110789;28;20047;-68
2021/11/21 11:40:27;;;;;;;2.00;0.55;;;;;;;;;;5111982;28;20028;-68
2021/11/21 11:42:54;;;;;;;1.23;0.60;;;;;;;;;;5109645;28;20080;-68
2021/11/21 11:45:39;;;;;;;3.05;0.70;;;;;;;;;;5106699;28;20023;-68
2021/11/21 11:48:34;;;;;;;2.42;0.80;;;;;;;;;;5108265;28;20498;-68
2021/11/21 11:51:06;;;;;;;3.67;0.98;;;;;;;;;;5090892;28;20088;-68
2021/11/21 11:53:33;;;;;;;1.05;0.47;;;;;;;;;;5108165;28;20027;-68
2021/11/21 11:56:11;;;;;;;1.60;0.73;;;;;;;;;;5108069;28;20012;-68
2021/11/21 11:58:37;;;;;;;;;;;;;;;;;;5109436;28;20034;-68
2021/11/21 12:01:03;;;;;;;1.92;0.80;;;;;;;;;;5110640;28;19911;-68
2021/11/21 12:03:38;;;;;;;1.90;1.00;;;;;;;;;;5108025;28;20031;-68
2021/11/21 12:06:05;;;;;;;1.73;1.05;;;;;;;;;;5107782;28;20066;-68
2021/11/21 12:08:31;;;;;;;2.30;1.15;;;;;;;;;;5108858;28;20023;-68
2021/11/21 12:10:57;;;;;;;1.80;0.98;;;;;;;;;;5108050;28;20543;-68
2021/11/21 12:13:27;;;;;;;2.40;1.17;;;;;;;;;;5110514;28;20025;-68
2021/11/21 12:15:55;;;;;;;3.17;1.33;;;;;;;;;;5109649;28;20051;-68
2021/11/21 12:18:22;;;;;;;2.97;1.53;;;;;;;;;;5107809;28;20110;-68
2021/11/21 12:20:58;;;;;;;1.60;1.20;;;;;;;;;;5107036;28;20288;-68
2021/11/21 12:23:43;;;;;;;2.83;1.50;;;;;;;;;;5107847;28;20276;-68
2021/11/21 12:26:21;;;;;;;3.03;1.60;;;;;;;;;;5111240;28;20028;-68
2021/11/21 12:28:58;;;;;;;7.97;4.00;;;;;;;;;;5108424;28;20565;-68
2021/11/21 12:31:30;;;;;;;5.22;2.08;;;;;;;;;;5112923;28;20055;-68
2021/11/21 12:34:15;;;;;;;3.83;1.83;;;;;;;;;;5113806;28;20042;-68
2021/11/21 12:37:07;;;;;;;4.55;2.53;;;;;;;;;;5111929;28;20027;-68
2021/11/21 12:39:33;;;;;;;16.02;5.28;;;;;;;;;;5083040;28;20039;-68
2021/11/21 12:42:06;;;;;;;21.67;7.22;;;;;;;;;;5110938;28;20031;-68
2021/11/21 12:44:33;;;;;;;5.60;2.40;;;;;;;;;;5110126;28;20359;-68
2021/11/21 12:47:03;;;;;;;5.45;2.35;;;;;;;;;;5111070;28;20024;-68
2021/11/21 12:49:29;;;;;;;5.82;2.53;;;;;;;;;;5113264;28;20023;-68
2021/11/21 12:52:09;;;;;;;4.47;2.20;;;;;;;;;;5113174;28;20503;-67
2021/11/21 12:54:35;;;;;;;9.90;4.72;;;;;;;;;;5110728;28;20019;-69
2021/11/21 12:57:01;;;;;;;9.80;3.83;;;;;;;;;;5111093;28;20047;-68
2021/11/21 12:59:46;;;;;;;14.68;6.55;;;;;;;;;;5110369;28;20445;-68
2021/11/21 13:02:12;;;;;;;18.33;9.35;;;;;;;;;;5110916;28;20039;-68
2021/11/21 13:04:56;;;;;;;26.00;13.35;;;;;;;;;;5110893;28;20020;-68
2021/11/21 13:07:34;;;;;;;21.70;12.75;;;;;;;;;;5110972;28;20020;-68
2021/11/21 13:10:07;;;;;;;14.98;7.30;;;;;;;;;;5113157;28;20036;-68
2021/11/21 13:12:35;;;;;;;12.55;6.07;;;;;;;;;;5110445;28;20105;-68
2021/11/21 13:15:01;;;;;;;;;;;;;;;;;;5110975;28;20467;-65
2021/11/21 13:17:27;;;;;;;8.60;3.75;;;;;;;;;;5110733;28;19915;-68
2021/11/21 13:20:00;;;;;;;12.15;4.10;;;;;;;;;;5110244;28;20445;-68
2021/11/21 13:22:46;;;;;;;7.05;3.33;;;;;;;;;;5112823;28;20028;-68
2021/11/21 13:25:12;;;;;;;14.23;7.70;;;;;;;;;;5108787;28;20382;-69
2021/11/21 13:27:38;;;;;;;10.18;5.55;;;;;;;;;;5109930;28;20038;-68
2021/11/21 13:30:13;;;;;;;11.38;5.65;;;;;;;;;;5110271;28;20023;-68
2021/11/21 13:32:39;;;;;;;10.25;4.57;;;;;;;;;;5107102;28;20070;-68
2021/11/21 13:35:18;;;;;;;8.23;3.97;;;;;;;;;;5110165;28;20051;-69
2021/11/21 13:37:45;;;;;;;3.83;2.30;;;;;;;;;;5093743;28;20019;-66
2021/11/21 13:40:12;;;;;;;16.40;7.15;;;;;;;;;;5111554;28;20383;-66
2021/11/21 13:42:38;;;;;;;11.57;5.25;;;;;;;;;;5112088;28;20042;-69
2021/11/21 13:45:05;;;;;;;7.35;3.42;;;;;;;;;;5110309;27;20024;-66
2021/11/21 13:47:32;;;;;;;7.85;3.63;;;;;;;;;;5109514;28;20118;-66
2021/11/21 13:49:59;;;;;;;8.63;3.90;;;;;;;;;;5109882;28;20059;-70
2021/11/21 13:52:30;;;;;;;6.10;3.58;;;;;;;;;;5111820;28;20016;-71
2021/11/21 13:55:01;;;;;;;7.50;4.07;;;;;;;;;;5111748;28;20088;-68
2021/11/21 13:57:28;;;;;;;10.73;6.13;;;;;;;;;;5108464;28;20469;-70
2021/11/21 14:00:01;;;;;;;8.45;4.18;;;;;;;;;;5107269;28;20463;-69
2021/11/21 14:02:31;;;;;;;9.38;4.93;;;;;;;;;;5105933;28;20467;-69
2021/11/21 14:05:00;;;;;;;7.57;3.90;;;;;;;;;;5111350;28;20089;-69
2021/11/21 14:07:26;;;;;;;7.70;3.80;;;;;;;;;;5109228;28;20034;-70
2021/11/21 14:09:59;;;;;;;5.10;3.15;;;;;;;;;;5086986;28;20442;-70
2021/11/21 14:12:29;;;;;;;8.45;3.60;;;;;;;;;;5095832;28;20387;-69
2021/11/21 14:15:05;;;;;;;5.72;3.20;;;;;;;;;;5103477;28;20027;-69
2021/11/21 14:17:31;;;;;;;9.68;5.70;;;;;;;;;;5104751;28;20024;-68
2021/11/21 14:19:57;;;;;;;7.65;4.25;;;;;;;;;;5103989;28;20024;-69
2021/11/21 14:22:29;;;;;;;8.23;5.32;;;;;;;;;;5104453;28;20462;-67
2021/11/21 14:24:56;;;;;;;15.40;8.10;;;;;;;;;;5105455;28;20123;-67
2021/11/21 14:27:27;;;;;;;10.48;5.63;;;;;;;;;;5106432;27;20027;-66
2021/11/21 14:30:14;;;;;;;8.13;4.97;;;;;;;;;;5105616;28;20352;-71
2021/11/21 14:32:40;;;;;;;11.35;6.45;;;;;;;;;;5104506;28;20398;-70
2021/11/21 14:35:21;;;;;;;13.63;8.18;;;;;;;;;;5104702;28;20027;-70
2021/11/21 14:37:47;;;;;;;12.40;7.72;;;;;;;;;;5102302;28;20424;-70